Time;durP1;ratioP1;P1;durP2;ratioP2;P2;SDS_P1;SDS_P2;PMS_P1;PMS_P2;Temp;Humidity;BMP_temperature;BMP_pressure;BME280_temperature;BME280_humidity;BME280_pressure;Samples;Min_cycle;Max_cycle;Signal;HPM_P1;HPM_P2
2022/06/03 00:01:32;;;;;;;4.05;3.20;;;15.70;91.90;;;;;;7349650;19;109149;-78
2022/06/03 00:04:37;;;;;;;4.13;3.40;;;15.70;91.80;;;;;;7344894;19;108306;-78
2022/06/03 00:07:16;;;;;;;5.88;3.70;;;15.70;92.00;;;;;;7345410;19;109593;-79
2022/06/03 00:09:48;;;;;;;3.83;3.42;;;15.60;92.10;;;;;;7346626;19;107955;-78
2022/06/03 00:12:51;;;;;;;5.43;3.72;;;15.60;92.30;;;;;;7344420;19;108538;-79
2022/06/03 00:15:38;;;;;;;4.30;3.83;;;15.50;92.40;;;;;;7345416;19;109053;-78
2022/06/03 00:18:14;;;;;;;10.52;3.90;;;15.50;92.50;;;;;;7345648;19;108146;-78
2022/06/03 00:20:54;;;;;;;5.17;3.80;;;15.50;92.40;;;;;;7342951;19;107827;-78
2022/06/03 00:23:36;;;;;;;7.07;3.88;;;15.50;92.60;;;;;;7352065;19;112529;-79
2022/06/03 00:26:34;;;;;;;4.88;4.05;;;15.50;92.80;;;;;;7344410;19;108068;-78
2022/06/03 00:29:19;;;;;;;7.00;4.00;;;15.50;93.00;;;;;;7345607;19;109180;-78
2022/06/03 00:32:33;;;;;;;4.97;3.85;;;15.40;93.20;;;;;;7343697;19;108316;-78
2022/06/03 00:35:25;;;;;;;5.88;3.80;;;15.40;93.30;;;;;;7344878;19;108152;-79
2022/06/03 00:38:18;;;;;;;5.03;3.42;;;15.30;93.30;;;;;;7344312;19;107895;-79
2022/06/03 00:41:07;;;;;;;6.15;3.90;;;15.30;93.50;;;;;;7344745;19;108466;-78
2022/06/03 00:44:06;;;;;;;4.35;3.92;;;15.30;93.50;;;;;;7342618;19;108614;-78
2022/06/03 00:46:51;;;;;;;4.88;4.30;;;15.30;93.60;;;;;;7344610;19;110010;-79
2022/06/03 00:49:44;;;;;;;6.15;4.35;;;15.20;93.50;;;;;;7349877;19;108023;-79
2022/06/03 00:52:45;;;;;;;5.97;4.22;;;15.20;93.90;;;;;;7344231;19;109023;-78
2022/06/03 00:55:39;;;;;;;5.65;4.43;;;15.20;94.00;;;;;;7343887;19;107083;-78
2022/06/03 00:58:48;;;;;;;5.43;4.78;;;15.20;94.20;;;;;;7342032;19;108633;-78
2022/06/03 01:01:27;;;;;;;6.00;5.17;;;15.20;94.10;;;;;;7340087;19;108860;-78
2022/06/03 01:03:57;;;;;;;5.35;4.82;;;15.10;94.20;;;;;;7339833;19;108741;-78
2022/06/03 01:06:42;;;;;;;5.38;4.63;;;15.20;94.20;;;;;;7340395;19;108335;-78
2022/06/03 01:09:45;;;;;;;5.38;4.72;;;15.20;94.20;;;;;;7338482;19;109325;-78
2022/06/03 01:12:49;;;;;;;6.65;4.88;;;15.20;94.50;;;;;;7337229;19;108276;-79
2022/06/03 01:15:37;;;;;;;10.07;5.15;;;15.20;94.50;;;;;;7343826;19;108141;-79
2022/06/03 01:18:28;;;;;;;6.20;4.75;;;15.10;94.40;;;;;;7339486;19;107964;-78
2022/06/03 01:21:07;;;;;;;6.50;4.70;;;15.10;94.60;;;;;;7338520;19;108157;-78
2022/06/03 01:23:54;;;;;;;7.43;5.40;;;15.00;94.70;;;;;;7339867;19;108984;-78
2022/06/03 01:26:33;;;;;;;6.50;5.18;;;15.00;94.80;;;;;;7339591;19;108341;-78
2022/06/03 01:29:27;;;;;;;5.13;4.63;;;15.00;94.80;;;;;;7337858;19;108325;-78
2022/06/03 01:32:03;;;;;;;6.80;4.68;;;15.00;95.10;;;;;;7339037;19;108859;-78
2022/06/03 01:34:33;;;;;;;8.10;4.80;;;15.00;94.90;;;;;;7341540;19;107559;-78
2022/06/03 01:37:19;;;;;;;8.70;4.78;;;15.00;95.00;;;;;;7340601;19;107108;-78
2022/06/03 01:39:46;;;;;;;6.50;5.15;;;15.00;95.10;;;;;;7347009;19;109180;-79
2022/06/03 01:42:15;;;;;;;6.28;5.10;;;15.00;95.10;;;;;;7340991;19;107419;-78
2022/06/03 01:45:10;;;;;;;5.38;4.75;;;15.00;95.00;;;;;;7343480;19;108779;-78
2022/06/03 01:48:02;;;;;;;6.10;5.32;;;15.00;95.30;;;;;;7343502;19;107402;-78
2022/06/03 01:50:53;;;;;;;5.60;5.05;;;14.90;95.30;;;;;;7341753;19;107514;-78
2022/06/03 01:53:33;;;;;;;5.55;5.05;;;14.90;95.60;;;;;;7341335;19;110068;-79
2022/06/03 01:56:14;;;;;;;8.00;5.43;;;14.80;95.50;;;;;;7342087;19;107419;-78
2022/06/03 01:59:04;;;;;;;7.85;5.10;;;14.80;95.70;;;;;;7343382;19;108302;-79
2022/06/03 02:01:55;;;;;;;6.50;5.45;;;14.80;95.90;;;;;;7340169;19;110626;-79
2022/06/03 02:04:54;;;;;;;7.70;6.22;;;14.70;95.90;;;;;;7347386;19;107755;-78
2022/06/03 02:07:27;;;;;;;9.82;6.53;;;14.70;96.00;;;;;;7340780;19;108068;-78
2022/06/03 02:10:03;;;;;;;8.18;6.07;;;14.70;96.00;;;;;;7340541;19;108439;-78
2022/06/03 02:12:58;;;;;;;9.68;5.85;;;14.70;96.10;;;;;;7342855;19;108457;-78
2022/06/03 02:16:06;;;;;;;8.25;5.82;;;14.70;96.40;;;;;;7341620;19;107841;-78
2022/06/03 02:18:55;;;;;;;9.82;6.22;;;14.60;96.50;;;;;;7337867;19;108413;-79
2022/06/03 02:21:56;;;;;;;8.00;6.13;;;14.60;96.50;;;;;;7338022;19;108710;-78
2022/06/03 02:24:39;;;;;;;7.30;6.32;;;14.60;96.60;;;;;;7335383;19;108817;-78
2022/06/03 02:27:40;;;;;;;9.75;6.28;;;14.60;96.60;;;;;;7337293;19;108120;-78
2022/06/03 02:30:25;;;;;;;8.55;6.40;;;14.50;96.80;;;;;;7340275;19;108088;-78
2022/06/03 02:33:13;;;;;;;7.47;6.13;;;14.50;96.90;;;;;;7334126;19;109421;-78
2022/06/03 02:35:58;;;;;;;8.27;6.85;;;14.50;96.90;;;;;;7334358;19;108553;-79
2022/06/03 02:39:22;;;;;;;7.43;6.60;;;14.40;97.20;;;;;;7336403;19;109319;-80
2022/06/03 02:42:07;;;;;;;10.15;6.95;;;14.30;97.40;;;;;;7335042;19;107618;-78
2022/06/03 02:45:13;;;;;;;7.80;6.93;;;14.20;97.60;;;;;;7335852;19;108571;-79
2022/06/03 02:48:19;;;;;;;8.70;6.90;;;14.20;97.90;;;;;;7335986;19;109157;-78
2022/06/03 02:51:26;;;;;;;8.10;7.30;;;14.20;98.00;;;;;;7337007;19;107826;-79
2022/06/03 02:53:58;;;;;;;8.43;7.10;;;14.20;98.00;;;;;;7339914;19;107807;-79
2022/06/03 02:56:58;;;;;;;8.50;7.30;;;14.10;97.90;;;;;;7338443;19;107944;-78
2022/06/03 03:00:01;;;;;;;9.00;6.65;;;14.10;98.20;;;;;;7337429;19;108790;-78
2022/06/03 03:02:30;;;;;;;9.07;7.07;;;14.10;98.30;;;;;;7336805;19;109243;-78
2022/06/03 03:05:09;;;;;;;11.00;7.13;;;14.00;98.60;;;;;;7336164;19;107889;-78
2022/06/03 03:07:42;;;;;;;8.90;7.40;;;14.10;98.50;;;;;;7333813;19;109074;-78
2022/06/03 03:10:29;;;;;;;8.23;6.82;;;14.00;98.10;;;;;;7333618;19;108843;-78
2022/06/03 03:13:19;;;;;;;18.92;8.23;;;14.00;98.30;;;;;;7334759;19;108133;-79
2022/06/03 03:16:16;;;;;;;8.73;7.28;;;14.00;98.70;;;;;;7333699;19;108327;-78
2022/06/03 03:18:52;;;;;;;8.07;7.23;;;13.90;99.00;;;;;;7342228;19;109008;-78
2022/06/03 03:21:43;;;;;;;9.07;7.22;;;13.90;98.70;;;;;;7335252;19;108011;-78
2022/06/03 03:24:26;;;;;;;8.10;7.30;;;13.90;99.00;;;;;;7336124;19;111273;-79
2022/06/03 03:26:58;;;;;;;8.57;7.78;;;13.80;98.90;;;;;;7335108;19;107744;-78
2022/06/03 03:29:52;;;;;;;10.55;7.65;;;13.80;99.20;;;;;;7334419;19;108096;-78
2022/06/03 03:32:31;;;;;;;11.68;7.50;;;13.80;99.20;;;;;;7335400;19;111561;-78
2022/06/03 03:34:58;;;;;;;12.57;8.68;;;13.70;99.50;;;;;;7333873;19;110629;-78
2022/06/03 03:37:44;;;;;;;10.45;8.00;;;13.70;99.60;;;;;;7341434;19;111710;-79
2022/06/03 03:40:37;;;;;;;8.25;7.45;;;13.70;99.80;;;;;;7344247;19;109120;-78
2022/06/03 03:43:16;;;;;;;9.13;8.23;;;13.70;99.80;;;;;;7350563;19;108266;-78
2022/06/03 03:46:20;;;;;;;13.15;8.27;;;13.70;99.90;;;;;;7346411;19;108986;-78
2022/06/03 03:48:51;;;;;;;10.77;8.85;;;13.70;99.90;;;;;;7346320;19;108114;-78
2022/06/03 03:51:30;;;;;;;9.07;8.18;;;13.60;99.90;;;;;;7346758;19;108240;-78
2022/06/03 03:54:12;;;;;;;9.77;8.15;;;13.60;99.90;;;;;;7346026;19;109249;-78
2022/06/03 03:57:09;;;;;;;11.10;8.65;;;13.50;99.90;;;;;;7345480;19;108378;-78
2022/06/03 03:59:47;;;;;;;10.10;8.45;;;13.60;99.90;;;;;;7345709;19;107414;-79
2022/06/03 04:02:33;;;;;;;16.00;9.05;;;13.60;99.90;;;;;;7344268;19;108803;-78
2022/06/03 04:05:18;;;;;;;9.88;8.77;;;13.60;99.90;;;;;;7343715;19;108517;-79
2022/06/03 04:08:04;;;;;;;11.30;9.15;;;13.60;99.90;;;;;;7350245;19;108176;-78
2022/06/03 04:10:55;;;;;;;14.30;9.70;;;13.60;99.90;;;;;;7344891;19;107983;-78
2022/06/03 04:13:36;;;;;;;9.95;8.75;;;13.60;99.90;;;;;;7344803;19;108539;-78
2022/06/03 04:16:22;;;;;;;12.88;9.02;;;13.50;99.90;;;;;;7343757;19;109323;-78
2022/06/03 04:19:19;;;;;;;16.45;8.75;;;13.50;99.90;;;;;;7345783;19;108337;-78
2022/06/03 04:22:20;;;;;;;12.43;8.48;;;13.50;99.90;;;;;;7345646;19;107477;-79
2022/06/03 04:24:47;;;;;;;10.70;8.57;;;13.50;99.90;;;;;;7345039;19;109258;-78
2022/06/03 04:27:34;;;;;;;;;;;13.50;99.90;;;;;;7347334;19;107954;-78
2022/06/03 04:30:29;;;;;;;8.35;7.55;;;13.50;99.90;;;;;;7347177;19;108108;-82
2022/06/03 04:33:13;;;;;;;8.93;7.95;;;13.50;99.90;;;;;;7351834;19;108959;-78
2022/06/03 04:35:44;;;;;;;9.32;8.25;;;13.60;99.90;;;;;;7343078;19;108118;-78
2022/06/03 04:38:17;;;;;;;11.00;7.82;;;13.60;99.90;;;;;;7345812;19;108972;-78
2022/06/03 04:41:22;;;;;;;11.07;7.53;;;13.60;99.90;;;;;;7343949;19;107965;-78
2022/06/03 04:43:55;;;;;;;12.30;8.23;;;13.60;99.90;;;;;;7342406;19;108266;-78
2022/06/03 04:46:34;;;;;;;13.18;8.45;;;13.70;99.90;;;;;;7344957;19;108869;-78
2022/06/03 04:49:34;;;;;;;10.10;8.70;;;13.70;99.90;;;;;;7344916;19;108283;-79
2022/06/03 04:52:17;;;;;;;9.32;7.60;;;13.80;99.90;;;;;;7345452;19;108195;-78
2022/06/03 04:55:03;;;;;;;9.02;8.10;;;13.80;99.90;;;;;;7343671;19;108917;-78
2022/06/03 04:58:02;;;;;;;9.48;8.48;;;13.80;99.90;;;;;;7350095;19;107225;-78
2022/06/03 05:00:40;;;;;;;15.43;8.68;;;13.80;99.90;;;;;;7344895;19;108329;-79
2022/06/03 05:03:41;;;;;;;8.80;7.88;;;13.80;99.90;;;;;;7345609;19;108354;-78
2022/06/03 05:06:14;;;;;;;9.43;7.43;;;13.90;99.90;;;;;;7344425;19;108383;-78
2022/06/03 05:08:45;;;;;;;10.25;8.25;;;13.90;99.90;;;;;;7343699;19;109305;-78
2022/06/03 05:11:31;;;;;;;9.48;7.75;;;13.90;99.90;;;;;;7344441;19;112132;-78
2022/06/03 05:14:20;;;;;;;12.25;7.95;;;14.00;99.90;;;;;;7343397;19;112128;-79
2022/06/03 05:17:09;;;;;;;11.48;7.95;;;14.10;99.90;;;;;;7341610;19;108902;-80
2022/06/03 05:19:45;;;;;;;10.57;7.22;;;14.20;99.90;;;;;;7346492;19;107537;-80
2022/06/03 05:22:15;;;;;;;9.13;8.23;;;14.30;99.90;;;;;;7343217;19;109030;-81
2022/06/03 05:24:54;;;;;;;9.60;7.40;;;14.40;99.90;;;;;;7344086;19;107914;-80
2022/06/03 05:27:40;;;;;;;10.40;7.72;;;14.50;99.90;;;;;;7342008;19;110743;-81
2022/06/03 05:30:26;;;;;;;9.98;8.15;;;14.50;99.90;;;;;;7340403;19;109306;-81
2022/06/03 05:33:18;;;;;;;10.45;7.65;;;14.60;99.90;;;;;;7343091;19;107956;-81
2022/06/03 05:36:21;;;;;;;7.95;7.22;;;14.70;99.90;;;;;;7339639;19;108358;-82
2022/06/03 05:39:13;;;;;;;8.32;7.25;;;14.90;99.90;;;;;;7341735;19;109012;-81
2022/06/03 05:42:24;;;;;;;12.02;7.25;;;15.00;99.90;;;;;;7340450;19;108281;-81
2022/06/03 05:45:09;;;;;;;13.65;7.05;;;15.00;99.90;;;;;;7348515;19;108243;-81
2022/06/03 05:48:05;;;;;;;9.77;7.13;;;15.10;99.90;;;;;;7343326;19;108251;-82
2022/06/03 05:50:57;;;;;;;13.65;7.20;;;15.30;99.90;;;;;;7341189;19;108196;-81
2022/06/03 05:53:44;;;;;;;23.48;7.50;;;15.40;99.90;;;;;;7340397;19;108671;-82
2022/06/03 05:56:41;;;;;;;11.25;7.07;;;15.60;99.90;;;;;;7339660;19;107915;-81
2022/06/03 05:59:21;;;;;;;17.63;8.18;;;15.70;99.90;;;;;;7340198;19;107508;-81
2022/06/03 06:02:06;;;;;;;13.95;7.05;;;15.80;99.90;;;;;;7342510;19;109897;-81
2022/06/03 06:04:51;;;;;;;7.63;6.82;;;15.90;99.90;;;;;;7343905;19;108267;-81
2022/06/03 06:07:38;;;;;;;32.30;8.30;;;16.00;99.90;;;;;;7343209;19;107515;-81
2022/06/03 06:10:41;;;;;;;21.70;7.22;;;16.10;99.90;;;;;;7346200;19;108376;-82
2022/06/03 06:13:21;;;;;;;8.70;6.70;;;16.20;99.90;;;;;;7340356;19;107200;-82
2022/06/03 06:16:17;;;;;;;7.10;6.50;;;16.30;99.90;;;;;;7335903;19;108947;-81
2022/06/03 06:18:58;;;;;;;19.65;6.90;;;16.40;99.90;;;;;;7342341;19;108011;-81
2022/06/03 06:22:03;;;;;;;11.52;6.13;;;16.50;99.90;;;;;;7341861;19;107343;-81
2022/06/03 06:24:40;;;;;;;8.18;6.68;;;16.60;99.90;;;;;;7340631;19;108552;-82
2022/06/03 06:27:08;;;;;;;25.98;7.32;;;16.70;99.90;;;;;;7342040;19;111670;-81
2022/06/03 06:29:59;;;;;;;14.57;6.88;;;16.80;99.90;;;;;;7340481;19;108548;-81
2022/06/03 06:32:52;;;;;;;24.38;6.78;;;16.90;99.80;;;;;;7341655;19;108438;-82
2022/06/03 06:35:41;;;;;;;10.75;6.07;;;17.10;99.50;;;;;;7344994;19;108695;-81
2022/06/03 06:38:38;;;;;;;9.75;5.90;;;17.30;99.30;;;;;;7341354;19;109461;-81
2022/06/03 06:41:17;;;;;;;15.97;5.60;;;17.30;98.70;;;;;;7340671;19;108223;-81
2022/06/03 06:44:01;;;;;;;33.22;6.50;;;17.40;99.00;;;;;;7341533;19;107470;-81
2022/06/03 06:47:03;;;;;;;5.93;5.30;;;17.50;98.90;;;;;;7338648;19;109940;-81
2022/06/03 06:49:36;;;;;;;18.00;6.40;;;17.60;98.80;;;;;;7340800;19;108111;-81
2022/06/03 06:52:06;;;;;;;7.20;5.38;;;17.70;98.90;;;;;;7338724;19;108942;-82
2022/06/03 06:54:36;;;;;;;8.00;5.22;;;17.80;98.40;;;;;;7339504;19;109286;-81
2022/06/03 06:57:11;;;;;;;9.95;5.82;;;17.80;98.10;;;;;;7340628;19;107443;-81
2022/06/03 06:59:45;;;;;;;8.25;4.97;;;17.90;98.10;;;;;;7343912;19;108184;-81
2022/06/03 07:02:21;;;;;;;10.60;5.45;;;17.90;97.80;;;;;;7340282;19;108908;-82
2022/06/03 07:04:55;;;;;;;6.35;4.88;;;18.00;97.80;;;;;;7339672;19;108000;-82
2022/06/03 07:07:29;;;;;;;7.72;4.60;;;18.10;97.80;;;;;;7342029;19;108984;-82
2022/06/03 07:10:24;;;;;;;10.35;5.45;;;18.20;97.70;;;;;;7341643;19;107693;-82
2022/06/03 07:13:13;;;;;;;15.02;5.10;;;18.40;97.80;;;;;;7345947;19;109429;-82
2022/06/03 07:16:02;;;;;;;12.10;5.50;;;18.60;97.70;;;;;;7347337;19;109113;-82
2022/06/03 07:21:55;;;;;;;7.57;5.47;;;18.80;97.50;;;;;;7352974;19;107957;-82
2022/06/03 07:24:36;;;;;;;6.20;4.85;;;18.90;97.30;;;;;;7346813;19;108404;-82
2022/06/03 07:27:15;;;;;;;6.68;5.32;;;19.00;96.90;;;;;;7347731;19;107180;-82
2022/06/03 07:29:55;;;;;;;6.75;4.85;;;19.00;96.70;;;;;;7345647;19;108863;-81
2022/06/03 07:32:28;;;;;;;5.25;4.70;;;19.10;96.40;;;;;;7345355;19;108106;-82
2022/06/03 07:34:59;;;;;;;5.30;4.80;;;19.10;96.30;;;;;;7342226;19;107784;-83
2022/06/03 07:37:38;;;;;;;5.72;4.65;;;19.20;96.20;;;;;;7345848;19;108428;-82
2022/06/03 07:40:15;;;;;;;4.95;4.45;;;19.30;96.00;;;;;;7346711;19;107943;-82
2022/06/03 07:42:57;;;;;;;5.25;4.15;;;19.30;95.80;;;;;;7347957;19;108157;-83
2022/06/03 07:45:30;;;;;;;7.65;4.38;;;19.40;95.60;;;;;;7351047;19;109272;-82
2022/06/03 07:48:05;;;;;;;9.63;4.40;;;19.40;95.80;;;;;;7345855;19;108536;-82
2022/06/03 07:50:36;;;;;;;8.30;4.18;;;19.50;96.00;;;;;;7344568;19;109281;-83
2022/06/03 07:53:14;;;;;;;12.65;4.78;;;19.70;96.20;;;;;;7346966;19;108075;-82
2022/06/03 07:55:41;;;;;;;7.28;4.05;;;19.80;95.40;;;;;;7345094;19;108364;-82
2022/06/03 07:58:15;;;;;;;5.55;4.07;;;19.90;95.50;;;;;;7346385;19;108856;-82
2022/06/03 08:00:45;;;;;;;6.35;4.03;;;20.00;95.30;;;;;;7345097;19;107096;-82
2022/06/03 08:03:24;;;;;;;7.50;4.35;;;20.10;95.20;;;;;;7346788;19;108397;-82
2022/06/03 08:05:58;;;;;;;6.32;4.00;;;20.20;95.10;;;;;;7345136;19;110344;-82
2022/06/03 08:11:17;;;;;;;11.93;4.03;;;20.40;94.30;;;;;;7346259;19;112902;-82
2022/06/03 08:13:51;;;;;;;5.25;3.80;;;20.50;94.70;;;;;;7344080;19;108629;-82
2022/06/03 08:16:25;;;;;;;5.15;3.50;;;20.70;94.60;;;;;;7344846;19;108330;-82
2022/06/03 08:18:57;;;;;;;5.78;3.83;;;20.90;94.50;;;;;;7346299;19;109266;-82
2022/06/03 08:21:31;;;;;;;5.13;4.30;;;21.10;94.60;;;;;;7346271;19;108262;-82
2022/06/03 08:24:00;;;;;;;6.30;4.00;;;21.10;93.90;;;;;;7344888;19;108201;-82
2022/06/03 08:26:30;;;;;;;4.95;3.38;;;21.20;94.00;;;;;;7345763;19;113127;-82
2022/06/03 08:29:27;;;;;;;8.18;3.13;;;21.20;93.20;;;;;;7344313;19;107360;-82
2022/06/03 08:31:56;;;;;;;16.33;3.83;;;21.20;93.20;;;;;;7349203;19;108507;-83
2022/06/03 08:34:33;;;;;;;5.15;3.28;;;21.30;93.40;;;;;;7344427;19;107935;-83
2022/06/03 08:37:00;;;;;;;;;;;21.40;93.00;;;;;;7342173;19;107781;-82
2022/06/03 08:39:32;;;;;;;3.85;3.00;;;21.50;93.10;;;;;;7348940;19;108159;-82
2022/06/03 08:42:24;;;;;;;6.32;3.00;;;21.50;92.90;;;;;;7344482;19;108027;-83
2022/06/03 08:45:12;;;;;;;6.72;2.25;;;21.60;93.60;;;;;;7344125;19;109739;-83
2022/06/03 08:47:48;;;;;;;9.15;2.50;;;21.80;92.50;;;;;;7344252;19;108040;-82
2022/06/03 08:50:47;;;;;;;6.07;2.55;;;22.10;91.60;;;;;;7343522;19;108189;-83
2022/06/03 08:53:54;;;;;;;6.40;3.38;;;22.30;92.10;;;;;;7344482;19;111267;-83
2022/06/03 08:56:30;;;;;;;7.13;2.70;;;22.30;91.80;;;;;;7348030;19;109325;-83
2022/06/03 08:59:02;;;;;;;4.07;2.72;;;22.40;92.10;;;;;;7343189;19;111622;-84
2022/06/03 09:01:38;;;;;;;3.05;2.70;;;22.50;91.80;;;;;;7344670;19;110276;-84
2022/06/03 09:04:34;;;;;;;3.17;2.40;;;22.60;91.10;;;;;;7342523;19;108032;-84
2022/06/03 09:07:23;;;;;;;8.15;2.78;;;22.60;91.10;;;;;;7342496;19;108867;-85
2022/06/03 09:09:54;;;;;;;9.35;1.83;;;22.70;91.10;;;;;;7344020;19;109723;-83
2022/06/03 09:12:56;;;;;;;4.07;1.60;;;22.80;90.20;;;;;;7343898;19;107986;-85
2022/06/03 09:15:27;;;;;;;6.72;2.83;;;23.00;90.40;;;;;;7342918;19;108511;-84
2022/06/03 09:17:59;;;;;;;3.38;1.80;;;23.00;87.80;;;;;;7344892;19;109058;-83
2022/06/03 09:20:33;;;;;;;2.72;1.80;;;23.00;89.50;;;;;;7347798;19;109923;-84
2022/06/03 09:23:05;;;;;;;9.27;2.13;;;23.10;89.60;;;;;;7344382;19;108625;-83
2022/06/03 09:25:34;;;;;;;7.38;2.00;;;23.20;88.90;;;;;;7343863;19;110227;-83
2022/06/03 09:28:06;;;;;;;5.05;1.60;;;23.30;88.30;;;;;;7343565;19;108249;-83
2022/06/03 09:30:39;;;;;;;4.35;1.52;;;23.40;88.00;;;;;;7339396;19;108523;-83
2022/06/03 09:33:11;;;;;;;6.50;1.90;;;23.50;85.50;;;;;;7342117;19;107955;-83
2022/06/03 09:35:44;;;;;;;6.18;1.50;;;23.50;85.90;;;;;;7336923;19;107997;-83
2022/06/03 09:38:13;;;;;;;9.15;1.35;;;23.60;83.80;;;;;;7341793;19;109312;-83
2022/06/03 09:40:43;;;;;;;16.80;1.50;;;23.70;83.50;;;;;;7347928;19;107170;-83
2022/06/03 09:43:27;;;;;;;5.75;1.23;;;23.90;81.70;;;;;;7342467;19;109228;-83
2022/06/03 09:45:58;;;;;;;1.05;0.85;;;24.00;81.10;;;;;;7341303;19;108308;-84
2022/06/03 09:48:30;;;;;;;4.85;1.25;;;24.00;78.90;;;;;;7341261;19;111776;-84
2022/06/03 09:51:02;;;;;;;3.30;0.80;;;24.00;82.00;;;;;;7341803;19;108977;-83
2022/06/03 09:53:33;;;;;;;16.67;1.38;;;24.10;76.60;;;;;;7340765;19;108088;-84
2022/06/03 09:56:04;;;;;;;9.82;1.23;;;24.10;77.20;;;;;;7338914;19;108587;-83
2022/06/03 09:58:33;;;;;;;6.47;0.95;;;24.20;76.30;;;;;;7340072;19;109333;-84
2022/06/03 10:01:03;;;;;;;4.35;0.90;;;24.30;75.60;;;;;;7341763;19;107636;-83
2022/06/03 10:03:32;;;;;;;8.55;1.02;;;24.40;74.30;;;;;;7346247;19;107827;-83
2022/06/03 10:05:59;;;;;;;1.92;0.70;;;24.40;75.10;;;;;;7341728;19;108292;-84
2022/06/03 10:14:04;;;;;;;16.33;1.42;;;24.60;72.60;;;;;;7342720;19;108250;-83
2022/06/03 10:16:32;;;;;;;5.97;1.13;;;24.60;74.40;;;;;;7339406;19;108271;-83
2022/06/03 10:18:59;;;;;;;2.40;0.68;;;24.70;73.30;;;;;;7343277;19;108725;-83
2022/06/03 10:21:30;;;;;;;1.20;0.80;;;24.80;70.90;;;;;;7342297;19;108749;-83
2022/06/03 10:24:01;;;;;;;2.65;1.05;;;24.70;70.70;;;;;;7342353;19;108206;-83
2022/06/03 10:26:52;;;;;;;2.75;0.70;;;24.70;70.80;;;;;;7346577;19;108990;-83
2022/06/03 10:29:23;;;;;;;8.27;1.20;;;24.80;70.70;;;;;;7339042;19;110576;-83
2022/06/03 10:31:51;;;;;;;4.47;0.77;;;24.80;70.50;;;;;;7340111;19;109255;-83
2022/06/03 10:34:34;;;;;;;8.82;1.05;;;24.90;69.60;;;;;;7342368;19;111208;-83
2022/06/03 10:37:03;;;;;;;2.55;0.70;;;25.10;69.80;;;;;;7340868;19;107885;-85
2022/06/03 10:39:33;;;;;;;17.33;1.30;;;25.10;70.30;;;;;;7340631;19;108676;-84
2022/06/03 10:42:00;;;;;;;7.85;1.00;;;25.20;69.10;;;;;;7342122;19;108641;-84
2022/06/03 10:44:36;;;;;;;5.20;0.95;;;25.20;69.00;;;;;;7341589;19;111582;-86
2022/06/03 10:47:07;;;;;;;4.72;0.50;;;25.20;66.30;;;;;;7340794;19;108775;-85
2022/06/03 10:49:58;;;;;;;1.45;0.70;;;25.20;64.80;;;;;;7352271;19;108231;-85
2022/06/03 11:01:33;;;;;;;4.43;1.27;;;24.90;65.60;;;;;;7348022;19;109003;-84
2022/06/03 11:04:01;;;;;;;1.70;0.88;;;25.00;67.60;;;;;;7348276;19;107996;-84
2022/06/03 11:06:39;;;;;;;2.42;0.80;;;25.20;66.20;;;;;;7347605;19;108175;-84
2022/06/03 11:09:08;;;;;;;2.58;1.30;;;25.30;65.00;;;;;;7348080;19;109225;-82
2022/06/03 11:11:43;;;;;;;4.00;1.15;;;25.30;63.10;;;;;;7348102;19;108090;-83
2022/06/03 11:14:28;;;;;;;7.53;1.50;;;25.30;64.00;;;;;;7351136;19;108090;-83
2022/06/03 11:17:04;;;;;;;1.60;0.90;;;25.40;64.10;;;;;;7345739;19;107958;-83
2022/06/03 11:19:44;;;;;;;10.25;1.50;;;25.40;63.90;;;;;;7346268;19;107714;-83
2022/06/03 11:22:17;;;;;;;17.02;1.40;;;25.50;65.00;;;;;;7347527;19;108936;-83
2022/06/03 11:25:25;;;;;;;21.52;2.42;;;25.70;64.70;;;;;;7347285;19;107016;-82
2022/06/03 11:28:03;;;;;;;7.78;0.98;;;25.80;65.60;;;;;;7344568;19;107591;-83
2022/06/03 11:30:34;;;;;;;2.15;1.20;;;25.90;62.20;;;;;;7345259;19;108723;-83
2022/06/03 11:33:27;;;;;;;6.50;1.50;;;26.00;64.10;;;;;;7347214;19;111174;-83
2022/06/03 11:36:07;;;;;;;9.98;1.98;;;26.00;63.90;;;;;;7343621;19;108948;-83
2022/06/03 11:38:52;;;;;;;5.88;1.23;;;26.00;63.70;;;;;;7351117;19;107937;-83
2022/06/03 11:41:25;;;;;;;7.13;1.80;;;26.00;64.60;;;;;;7345354;19;107842;-83
2022/06/03 11:44:31;;;;;;;5.95;1.50;;;26.00;63.50;;;;;;7345503;19;109301;-83
2022/06/03 11:47:07;;;;;;;3.17;1.52;;;26.00;60.90;;;;;;7346889;19;107938;-83
2022/06/03 11:49:34;;;;;;;1.67;1.20;;;25.80;61.20;;;;;;7346398;19;108132;-84
2022/06/03 11:52:06;;;;;;;1.75;1.17;;;25.80;61.30;;;;;;7347559;19;108957;-83
2022/06/03 11:54:34;;;;;;;5.97;1.90;;;25.80;62.30;;;;;;7346514;19;108024;-83
2022/06/03 11:57:03;;;;;;;7.03;1.83;;;25.80;62.20;;;;;;7343705;19;108343;-83
2022/06/03 11:59:38;;;;;;;3.72;1.75;;;25.80;60.20;;;;;;7348929;19;109562;-83
2022/06/03 12:02:13;;;;;;;3.13;1.40;;;25.70;60.60;;;;;;7345145;19;108333;-83
2022/06/03 12:04:58;;;;;;;11.38;2.22;;;25.70;60.00;;;;;;7343664;19;109271;-83
2022/06/03 12:07:28;;;;;;;4.97;1.65;;;25.80;62.30;;;;;;7346133;19;107144;-83
2022/06/03 12:10:11;;;;;;;3.13;1.55;;;25.80;61.50;;;;;;7344257;19;108707;-83
2022/06/03 12:15:40;;;;;;;5.38;1.83;;;25.90;59.80;;;;;;7345554;19;110417;-83
2022/06/03 12:18:07;;;;;;;4.15;1.75;;;25.90;59.40;;;;;;7344123;19;107348;-84
2022/06/03 12:20:49;;;;;;;3.42;1.80;;;25.90;59.90;;;;;;7346110;19;109112;-83
2022/06/03 12:23:16;;;;;;;2.67;1.80;;;26.00;60.10;;;;;;7349283;19;107276;-83
2022/06/03 12:25:53;;;;;;;3.58;1.83;;;26.00;59.80;;;;;;7344199;19;109051;-83
2022/06/03 12:28:42;;;;;;;2.65;1.65;;;26.10;59.60;;;;;;7345283;19;108286;-82
2022/06/03 12:31:26;;;;;;;8.18;2.20;;;26.20;60.00;;;;;;7341581;19;110412;-83
2022/06/03 12:34:08;;;;;;;11.13;2.90;;;26.40;60.60;;;;;;7340787;19;108465;-83
2022/06/03 12:36:49;;;;;;;17.35;3.33;;;26.50;60.90;;;;;;7340524;19;108366;-83
2022/06/03 12:39:34;;;;;;;8.98;2.40;;;26.60;61.90;;;;;;7343428;19;108633;-83
2022/06/03 12:42:27;;;;;;;4.47;2.45;;;26.70;61.00;;;;;;7344115;19;109170;-83
2022/06/03 12:45:03;;;;;;;5.07;2.28;;;26.70;58.20;;;;;;7342930;19;108385;-83
2022/06/03 12:47:35;;;;;;;6.95;2.50;;;26.60;58.60;;;;;;7350931;19;108089;-83
2022/06/03 12:50:05;;;;;;;6.35;2.20;;;26.60;60.00;;;;;;7346460;19;107954;-83
2022/06/03 12:52:35;;;;;;;4.13;2.08;;;26.60;59.10;;;;;;7343806;19;108480;-83
2022/06/03 12:55:21;;;;;;;9.27;2.63;;;26.60;60.40;;;;;;7343486;19;111887;-83
2022/06/03 12:58:15;;;;;;;2.97;2.42;;;26.80;60.20;;;;;;7341841;19;108008;-83
2022/06/03 13:00:55;;;;;;;4.32;1.90;;;26.70;57.90;;;;;;7343801;19;108509;-82
2022/06/03 13:03:22;;;;;;;5.32;2.35;;;26.50;58.60;;;;;;7344455;19;108959;-82
2022/06/03 13:05:51;;;;;;;3.20;2.47;;;26.40;57.90;;;;;;7344000;19;107432;-83
2022/06/03 13:08:27;;;;;;;7.13;2.30;;;26.50;59.20;;;;;;7345269;19;110826;-83
2022/06/03 13:11:13;;;;;;;4.93;2.90;;;26.60;58.10;;;;;;7345155;19;110002;-84
2022/06/03 13:14:06;;;;;;;3.42;2.53;;;26.80;57.80;;;;;;7342519;19;110820;-83
2022/06/03 13:16:35;;;;;;;12.60;2.80;;;26.80;58.40;;;;;;7337638;19;111065;-83
2022/06/03 13:19:18;;;;;;;3.88;2.00;;;26.90;58.60;;;;;;7338281;19;108363;-83
2022/06/03 13:21:56;;;;;;;8.15;2.38;;;27.00;59.40;;;;;;7340729;19;108187;-83
2022/06/03 13:24:32;;;;;;;17.90;2.40;;;27.10;57.60;;;;;;7341496;19;108436;-83
2022/06/03 13:27:10;;;;;;;16.70;3.20;;;27.00;58.10;;;;;;7343017;19;108427;-82
2022/06/03 13:29:49;;;;;;;19.95;3.53;;;27.10;60.60;;;;;;7338906;19;108339;-83
2022/06/03 13:32:36;;;;;;;7.13;2.85;;;27.30;58.90;;;;;;7339888;19;109038;-83
2022/06/03 13:35:28;;;;;;;10.23;2.92;;;27.40;59.20;;;;;;7347658;19;107122;-87
2022/06/03 13:38:16;;;;;;;7.07;2.20;;;27.50;59.50;;;;;;7340149;19;109106;-84
2022/06/03 13:42:57;;;;;;;5.30;2.05;;;27.60;58.10;;;;;;7341621;19;108078;-83
2022/06/03 13:43:31;;;;;;;3.58;2.40;;;27.70;59.40;;;;;;7344135;19;111270;-83
2022/06/03 13:46:06;;;;;;;5.55;2.42;;;28.00;57.90;;;;;;7340716;19;109435;-84
2022/06/03 13:48:58;;;;;;;7.10;2.63;;;28.00;58.00;;;;;;7344100;19;107841;-84
2022/06/03 13:51:47;;;;;;;7.50;2.50;;;28.10;54.60;;;;;;7342187;19;108260;-84
2022/06/03 13:54:22;;;;;;;11.18;2.25;;;28.10;57.50;;;;;;7342120;19;109135;-83
2022/06/03 13:57:15;;;;;;;3.08;1.95;;;28.10;56.70;;;;;;7341063;19;108341;-83
2022/06/03 13:59:44;;;;;;;15.27;1.90;;;28.20;57.40;;;;;;7348515;19;110604;-83
2022/06/03 14:02:20;;;;;;;2.92;2.00;;;28.40;58.40;;;;;;7340900;19;111150;-84
2022/06/03 14:05:10;;;;;;;5.07;2.10;;;28.50;56.80;;;;;;7342301;19;108170;-83
2022/06/03 14:07:41;;;;;;;4.72;1.70;;;28.50;56.80;;;;;;7341837;19;111621;-82
2022/06/03 14:10:16;;;;;;;10.23;2.53;;;28.50;57.40;;;;;;7339505;19;108983;-83
2022/06/03 14:13:13;;;;;;;2.53;2.20;;;28.40;56.40;;;;;;7340489;19;107994;-82
2022/06/03 14:15:50;;;;;;;3.55;1.77;;;28.30;54.30;;;;;;7339762;19;109210;-82